Time;durP1;ratioP1;P1;durP2;ratioP2;P2;SDS_P1;SDS_P2;PMS_P1;PMS_P2;Temp;Humidity;BMP_temperature;BMP_pressure;BME280_temperature;BME280_humidity;BME280_pressure;Samples;Min_cycle;Max_cycle;Signal;HPM_P1;HPM_P2
2022/01/26 00:06:37;;;;;;;28.50;12.82;;;;;;;-1.52;64.61;93885.25;2068180;69;20320;-71
2022/01/26 00:09:04;;;;;;;30.58;12.68;;;;;;;-1.55;63.59;93877.97;2068052;69;20210;-69
2022/01/26 00:11:33;;;;;;;23.00;10.95;;;;;;;-1.64;64.76;93883.75;2068112;69;20179;-69
2022/01/26 00:14:02;;;;;;;27.60;11.35;;;;;;;-1.84;65.60;93885.50;2068094;69;20207;-69
2022/01/26 00:16:47;;;;;;;23.73;10.85;;;;;;;-1.72;64.48;93885.53;2067914;69;20168;-70
2022/01/26 00:19:21;;;;;;;24.33;9.98;;;;;;;-1.87;65.74;93896.81;2068045;69;20190;-69
2022/01/26 00:21:52;;;;;;;23.60;10.60;;;;;;;-1.90;65.24;93893.03;2068091;69;20203;-69
2022/01/26 00:29:21;;;;;;;25.30;11.45;;;;;;;-1.97;64.40;93885.28;2067921;69;20144;-70
2022/01/26 00:33:06;;;;;;;24.65;11.77;;;;;;;-1.83;64.24;93887.03;2068031;69;20211;-71
2022/01/26 00:43:03;;;;;;;20.63;9.35;;;;;;;-1.77;63.83;93880.75;2068465;69;20227;-70
2022/01/26 00:45:35;;;;;;;19.05;9.10;;;;;;;-1.64;63.20;93883.75;2068133;69;20153;-69
2022/01/26 00:48:04;;;;;;;21.27;9.75;;;;;;;-1.82;63.33;93876.75;2067910;69;20164;-70
2022/01/26 00:50:32;;;;;;;14.70;6.97;;;;;;;-1.58;63.82;93870.69;2067811;69;20155;-70
2022/01/26 00:52:57;;;;;;;19.60;8.93;;;;;;;-1.90;65.35;93882.00;2068354;69;20288;-71
2022/01/26 00:55:23;;;;;;;19.65;9.10;;;;;;;-1.93;64.35;93874.72;2068328;69;20637;-73
2022/01/26 00:57:49;;;;;;;19.23;9.23;;;;;;;-1.83;64.13;93867.69;2068352;69;20136;-72
2022/01/26 01:00:21;;;;;;;19.25;8.15;;;;;;;-1.81;63.39;93873.47;2068165;69;20147;-73
2022/01/26 01:02:47;;;;;;;12.45;6.45;;;;;;;-1.95;66.07;93873.72;2068184;69;20235;-73
2022/01/26 01:05:26;;;;;;;16.77;7.50;;;;;;;-1.83;64.42;93883.53;2068087;69;20228;-73
2022/01/26 01:07:58;;;;;;;12.50;6.28;;;;;;;-1.77;64.18;93875.22;2068284;69;20156;-73
2022/01/26 01:10:25;;;;;;;14.13;6.93;;;;;;;-1.79;63.08;93878.47;2067985;69;20239;-73
2022/01/26 01:12:55;;;;;;;15.73;7.35;;;;;;;-1.98;64.12;93869.19;2068236;69;20148;-72
2022/01/26 01:15:21;;;;;;;15.90;7.63;;;;;;;-1.96;64.56;93872.97;2068213;69;20157;-73
2022/01/26 01:17:52;;;;;;;13.77;6.55;;;;;;;-1.88;64.50;93876.75;2068095;69;20210;-72
2022/01/26 01:31:29;;;;;;;16.13;6.70;;;;;;;-2.19;65.32;93874.22;2067831;69;20215;-74
2022/01/26 01:33:54;;;;;;;15.95;7.32;;;;;;;-2.14;64.68;93876.22;2068021;69;20156;-71
2022/01/26 01:36:21;;;;;;;14.90;6.45;;;;;;;-2.09;64.63;93876.22;2067284;69;20208;-70
2022/01/26 01:38:47;;;;;;;15.35;6.97;;;;;;;-2.37;65.87;93880.94;2070530;69;20543;-70
2022/01/26 01:41:13;;;;;;;13.63;6.72;;;;;;;-2.11;64.79;93870.47;2071439;69;20156;-68
2022/01/26 01:43:39;;;;;;;11.18;6.43;;;;;;;-2.15;64.79;93869.19;2068055;69;20148;-69
2022/01/26 01:46:06;;;;;;;12.88;6.70;;;;;;;-2.20;65.20;93872.69;2071382;69;20124;-69
2022/01/26 01:48:33;;;;;;;15.43;6.45;;;;;;;-2.20;64.66;93873.44;2071262;69;20148;-70
2022/01/26 01:51:06;;;;;;;14.90;6.90;;;;;;;-2.12;64.25;93876.47;2071105;69;20190;-69
2022/01/26 01:53:37;;;;;;;13.32;6.13;;;;;;;-2.23;64.63;93884.72;2068165;69;20182;-69
2022/01/26 01:56:04;;;;;;;11.70;5.50;;;;;;;-2.20;64.34;93876.22;2071202;69;20604;-70
2022/01/26 01:58:30;;;;;;;13.13;5.78;;;;;;;-2.20;64.51;93867.94;2071145;69;20125;-70
2022/01/26 02:00:59;;;;;;;9.48;5.10;;;;;;;-2.10;64.29;93877.47;2068113;69;20148;-71
2022/01/26 02:03:25;;;;;;;8.88;4.80;;;;;;;-2.08;64.17;93879.72;2065895;69;20185;-72
2022/01/26 02:05:51;;;;;;;10.27;5.00;;;;;;;-2.08;64.31;93871.44;2071655;69;20619;-72
2022/01/26 02:08:17;;;;;;;10.95;5.40;;;;;;;-2.55;67.09;93879.38;2071773;69;20145;-70
2022/01/26 02:10:44;;;;;;;11.27;5.88;;;;;;;-2.34;65.56;93874.41;2071732;69;20140;-73
2022/01/26 02:13:30;;;;;;;11.10;5.40;;;;;;;-2.22;64.84;93878.69;2068065;69;20705;-71
2022/01/26 02:21:37;;;;;;;11.10;5.55;;;;;;;-2.49;65.73;93877.38;2071282;69;20148;-69
2022/01/26 02:49:33;;;;;;;8.77;4.88;;;;;;;-2.32;64.80;93858.13;2071399;69;20148;-71
2022/01/26 03:01:56;;;;;;;8.38;4.28;;;;;;;-2.26;65.88;93822.25;2071886;69;20140;-73
2022/01/26 03:07:01;;;;;;;10.73;4.07;;;;;;;-2.21;66.70;93821.50;2071826;69;20151;-72
2022/01/26 03:09:33;;;;;;;12.07;4.53;;;;;;;-2.21;65.28;93827.78;2068517;69;20154;-73
2022/01/26 03:12:01;;;;;;;8.35;4.55;;;;;;;-2.17;65.16;93819.25;2071889;69;20163;-71
2022/01/26 03:14:50;;;;;;;9.45;4.22;;;;;;;-2.33;65.48;93821.53;2068538;69;20542;-70
2022/01/26 03:19:49;;;;;;;9.52;4.13;;;;;;;-1.93;63.94;93805.69;2068413;69;20139;-70
2022/01/26 03:30:08;;;;;;;9.40;4.03;;;;;;;-2.06;63.96;93805.47;2071796;69;20159;-70
2022/01/26 03:35:39;;;;;;;8.82;4.40;;;;;;;-2.01;64.08;93801.97;2068444;69;20147;-71
2022/01/26 03:38:06;;;;;;;10.48;4.60;;;;;;;-2.00;64.33;93791.69;2071823;69;20155;-72
2022/01/26 03:40:35;;;;;;;9.27;4.43;;;;;;;-1.99;65.33;93787.66;2071829;69;20172;-70
2022/01/26 03:43:01;;;;;;;10.30;4.45;;;;;;;-1.90;64.62;93779.13;2071662;69;20603;-71
2022/01/26 03:45:27;;;;;;;9.85;5.00;;;;;;;-2.15;64.86;93769.88;2071810;69;20155;-72
2022/01/26 03:47:54;;;;;;;9.00;4.25;;;;;;;-2.05;65.09;93771.84;2071794;69;20168;-71
2022/01/26 03:50:22;;;;;;;10.48;4.88;;;;;;;-2.00;65.13;93772.34;2071601;69;20298;-70
2022/01/26 03:52:47;;;;;;;6.10;3.70;;;;;;;-1.88;65.25;93757.28;2071779;69;20140;-71
2022/01/26 03:55:13;;;;;;;8.25;4.57;;;;;;;-1.96;65.92;93762.56;2071772;69;20151;-72
2022/01/26 03:57:38;;;;;;;8.30;4.47;;;;;;;-1.98;65.33;93764.31;2068388;69;20716;-71
2022/01/26 04:00:07;;;;;;;8.43;4.35;;;;;;;-1.90;65.47;93768.06;2071794;69;20149;-71
2022/01/26 04:02:38;;;;;;;9.35;3.85;;;;;;;-1.80;64.83;93752.75;2071764;69;20236;-71
2022/01/26 04:05:08;;;;;;;5.97;3.58;;;;;;;-1.64;64.51;93740.91;2071621;69;20141;-70
2022/01/26 04:07:34;;;;;;;9.55;4.30;;;;;;;-1.92;65.22;93768.59;2071878;69;20146;-72
2022/01/26 04:10:09;;;;;;;7.35;3.95;;;;;;;-1.85;64.55;93765.28;2071852;69;20148;-73
2022/01/26 04:12:37;;;;;;;10.00;5.13;;;;;;;-1.92;64.89;93754.03;2071895;69;20230;-72
2022/01/26 04:15:11;;;;;;;7.88;4.28;;;;;;;-1.88;64.93;93752.53;2071734;69;20140;-73
2022/01/26 04:17:37;;;;;;;5.45;2.97;;;;;;;-1.52;64.47;93751.91;2071757;69;20124;-71
2022/01/26 04:20:03;;;;;;;6.55;2.95;;;;;;;-1.33;63.85;93756.38;2071638;69;20744;-71
2022/01/26 04:22:37;;;;;;;9.55;4.10;;;;;;;-1.33;63.90;93750.88;2071788;69;20151;-71
2022/01/26 04:25:08;;;;;;;8.68;3.85;;;;;;;-1.68;64.75;93751.47;2071723;69;20132;-72
2022/01/26 04:27:39;;;;;;;9.90;4.15;;;;;;;-1.68;64.13;93751.47;2071687;69;20584;-71
2022/01/26 04:30:05;;;;;;;8.40;4.18;;;;;;;-1.78;64.64;93753.00;2071793;69;20156;-70
2022/01/26 04:32:31;;;;;;;8.65;4.53;;;;;;;-1.74;64.12;93744.44;2071687;69;20538;-70
2022/01/26 04:34:57;;;;;;;7.75;3.75;;;;;;;-1.63;63.41;93742.41;2071598;69;20145;-70
2022/01/26 04:37:34;;;;;;;8.65;3.50;;;;;;;-1.52;63.07;93738.84;2068358;69;20176;-72
2022/01/26 04:40:02;;;;;;;8.60;4.15;;;;;;;-1.35;62.63;93734.03;2071706;69;20152;-73
2022/01/26 04:42:42;;;;;;;7.90;3.47;;;;;;;-1.30;61.82;93733.25;2071888;69;20326;-72
2022/01/26 04:45:10;;;;;;;5.70;3.33;;;;;;;-1.20;62.55;93725.41;2071662;69;20149;-72
2022/01/26 04:47:36;;;;;;;9.13;4.10;;;;;;;-1.37;62.79;93720.00;2071687;69;20141;-72
2022/01/26 04:50:05;;;;;;;9.68;3.90;;;;;;;-1.59;63.90;93725.59;2071584;69;20144;-72
2022/01/26 04:52:30;;;;;;;7.97;3.88;;;;;;;-1.46;63.05;93714.75;2072080;69;20515;-70
2022/01/26 04:54:56;;;;;;;6.78;3.28;;;;;;;-1.35;62.38;93719.47;2071576;69;20144;-70
2022/01/26 04:57:22;;;;;;;8.63;3.20;;;;;;;-1.45;62.65;93715.50;2071748;69;20519;-72
2022/01/26 04:59:47;;;;;;;9.80;4.10;;;;;;;-1.41;62.78;93707.69;2071745;69;20140;-72
2022/01/26 05:02:13;;;;;;;8.05;4.15;;;;;;;-1.31;61.84;93706.16;2071762;69;20164;-70
2022/01/26 05:04:38;;;;;;;8.80;4.20;;;;;;;-1.23;61.72;93711.91;2071606;69;20167;-70
2022/01/26 05:07:04;;;;;;;11.18;5.43;;;;;;;-1.64;63.76;93712.56;2071634;69;20160;-70
2022/01/26 05:09:29;;;;;;;10.18;4.82;;;;;;;-1.84;64.50;93710.84;2071741;69;20160;-70
2022/01/26 05:11:56;;;;;;;11.00;5.38;;;;;;;-1.51;63.27;93709.22;2071618;69;20512;-70
2022/01/26 05:14:22;;;;;;;10.27;4.80;;;;;;;-1.43;63.19;93716.47;2071781;69;20152;-70
2022/01/26 05:16:48;;;;;;;8.93;3.90;;;;;;;-1.34;62.76;93712.69;2071662;69;20156;-70
2022/01/26 05:19:15;;;;;;;6.90;3.47;;;;;;;-1.41;63.05;93716.00;2071523;69;20172;-71
2022/01/26 05:21:41;;;;;;;7.13;3.38;;;;;;;-1.28;62.25;93718.94;2071707;69;20155;-70
2022/01/26 05:24:08;;;;;;;14.90;4.97;;;;;;;-1.46;62.48;93716.75;2071692;69;20217;-70
2022/01/26 05:26:33;;;;;;;9.27;4.32;;;;;;;-1.46;63.13;93714.00;2071410;69;20556;-69
2022/01/26 05:29:02;;;;;;;9.80;4.82;;;;;;;-1.38;62.41;93707.41;2071670;69;20237;-71
2022/01/26 05:31:27;;;;;;;9.18;4.13;;;;;;;-1.37;62.93;93708.19;2071521;69;20133;-72
2022/01/26 05:33:54;;;;;;;7.50;3.72;;;;;;;-1.39;62.01;93707.94;2071551;69;20144;-69
2022/01/26 05:36:20;;;;;;;8.80;4.30;;;;;;;-1.61;64.22;93711.53;2071532;69;20669;-70
2022/01/26 05:38:46;;;;;;;9.30;3.58;;;;;;;-1.46;63.26;93709.22;2070259;69;20172;-69
2022/01/26 05:41:11;;;;;;;6.53;3.28;;;;;;;-1.43;63.07;93710.97;2069471;69;20507;-70
2022/01/26 05:43:37;;;;;;;11.45;5.10;;;;;;;-1.44;63.70;93717.75;2069950;69;20155;-70
2022/01/26 05:46:09;;;;;;;6.00;3.60;;;;;;;-1.38;63.12;93712.94;2069108;69;20149;-69
2022/01/26 05:48:37;;;;;;;7.63;3.90;;;;;;;-1.26;62.59;93716.41;2069930;69;20672;-70
2022/01/26 05:51:08;;;;;;;8.30;4.10;;;;;;;-1.37;62.67;93706.19;2068069;69;20140;-70
2022/01/26 05:53:35;;;;;;;9.10;4.47;;;;;;;-1.22;62.61;93707.88;2071682;69;20651;-71
2022/01/26 05:56:01;;;;;;;8.88;4.32;;;;;;;-1.30;63.28;93704.88;2071412;69;20144;-71
2022/01/26 05:58:27;;;;;;;10.60;4.88;;;;;;;-1.47;64.30;93707.69;2071638;69;20148;-73
2022/01/26 06:00:53;;;;;;;7.43;3.92;;;;;;;-1.30;62.78;93715.94;2071583;69;20144;-70
2022/01/26 06:03:18;;;;;;;5.63;3.33;;;;;;;-1.36;62.88;93715.97;2071527;69;20160;-72
2022/01/26 06:05:44;;;;;;;7.47;3.33;;;;;;;-1.33;62.76;93709.44;2069670;69;20165;-70
2022/01/26 06:08:10;;;;;;;6.50;3.00;;;;;;;-1.32;62.55;93712.94;2068642;69;20141;-70
2022/01/26 06:10:35;;;;;;;7.20;3.55;;;;;;;-1.40;63.19;93709.94;2071464;69;20136;-73
2022/01/26 06:13:01;;;;;;;9.88;4.53;;;;;;;-1.73;63.88;93707.31;2071977;69;20144;-71
2022/01/26 06:15:27;;;;;;;18.80;10.30;;;;;;;-1.72;64.63;93712.31;2071989;69;20231;-71
2022/01/26 06:17:52;;;;;;;13.15;8.02;;;;;;;-1.71;64.67;93713.06;2071971;69;20631;-70
2022/01/26 06:20:18;;;;;;;17.23;10.77;;;;;;;-1.62;64.53;93710.03;2071862;69;20147;-70
2022/01/26 06:22:44;;;;;;;16.88;10.07;;;;;;;-1.52;63.01;93722.28;2068910;69;20148;-74
2022/01/26 06:25:10;;;;;;;14.88;9.15;;;;;;;-1.62;63.37;93712.78;2068803;69;20137;-72
2022/01/26 06:27:38;;;;;;;15.38;8.55;;;;;;;-1.52;63.16;93711.25;2068576;69;20144;-72
2022/01/26 06:30:05;;;;;;;11.65;6.68;;;;;;;-1.41;62.20;93711.22;2068517;69;20133;-74
2022/01/26 06:32:31;;;;;;;15.93;7.55;;;;;;;-1.78;63.55;93714.34;2071226;69;20599;-71
2022/01/26 06:34:57;;;;;;;15.20;7.45;;;;;;;-1.84;63.63;93711.59;2070222;69;20156;-72
2022/01/26 06:37:22;;;;;;;16.48;8.80;;;;;;;-1.91;64.07;93723.16;2069249;69;20235;-71
2022/01/26 06:39:48;;;;;;;15.15;8.50;;;;;;;-1.86;63.46;93714.13;2070367;69;20580;-71
2022/01/26 06:42:17;;;;;;;16.40;8.57;;;;;;;-1.90;63.71;93715.63;2071960;69;20144;-71
2022/01/26 06:49:53;;;;;;;16.50;8.07;;;;;;;-1.87;63.62;93717.38;2071269;69;20137;-70
2022/01/26 06:52:19;;;;;;;15.52;7.47;;;;;;;-1.77;63.39;93710.34;2068750;69;20603;-71
2022/01/26 06:54:45;;;;;;;12.20;6.70;;;;;;;-1.67;63.84;93714.31;2069721;69;20140;-70
2022/01/26 06:57:10;;;;;;;63.58;19.05;;;;;;;-2.18;65.59;93721.19;2071395;69;20247;-70
2022/01/26 06:59:36;;;;;;;29.25;11.02;;;;;;;-2.07;64.87;93721.19;2071954;69;20152;-72
2022/01/26 07:02:02;;;;;;;13.82;7.50;;;;;;;-1.80;63.69;93728.66;2071932;69;20133;-74
2022/01/26 07:04:28;;;;;;;28.92;12.25;;;;;;;-2.23;65.82;93728.22;2070368;69;20148;-74
2022/01/26 07:06:54;;;;;;;23.60;10.77;;;;;;;-1.97;64.44;93727.19;2068631;69;20185;-73
2022/01/26 07:09:19;;;;;;;24.60;10.98;;;;;;;-1.87;64.10;93725.66;2068564;69;20237;-74
2022/01/26 07:11:46;;;;;;;37.08;14.90;;;;;;;-2.25;65.85;93725.19;2068522;69;20160;-74
2022/01/26 07:14:22;;;;;;;27.25;11.57;;;;;;;-1.97;64.40;93733.47;2068566;69;20239;-73
2022/01/26 07:22:16;;;;;;;21.45;11.75;;;;;;;-2.17;65.84;93742.75;2068690;69;20218;-76
2022/01/26 07:24:42;;;;;;;19.13;10.27;;;;;;;-1.85;63.91;93729.41;2070563;69;20156;-71
2022/01/26 07:27:09;;;;;;;27.17;13.77;;;;;;;-2.39;65.88;93740.75;2068657;69;20266;-72
2022/01/26 07:29:35;;;;;;;23.08;13.70;;;;;;;-2.10;65.30;93734.00;2071935;69;20610;-72
2022/01/26 07:32:03;;;;;;;22.45;12.25;;;;;;;-1.98;65.23;93722.91;2072029;69;20160;-72
2022/01/26 07:34:28;;;;;;;23.55;12.63;;;;;;;-2.07;64.91;93730.19;2072012;69;20144;-72
2022/01/26 07:37:00;;;;;;;26.35;14.05;;;;;;;-2.08;65.33;93736.97;2071938;69;20152;-72
2022/01/26 07:39:49;;;;;;;21.88;11.98;;;;;;;-1.95;65.02;93738.47;2066337;69;20202;-71
2022/01/26 07:42:15;;;;;;;20.80;12.27;;;;;;;-1.84;64.16;93735.69;2065822;69;20248;-70
2022/01/26 07:44:45;;;;;;;18.63;11.20;;;;;;;-1.81;64.54;93748.47;2065391;69;20603;-72
2022/01/26 07:47:11;;;;;;;19.20;11.15;;;;;;;-1.87;64.66;93748.50;2068535;69;20208;-71
2022/01/26 07:49:37;;;;;;;21.88;12.18;;;;;;;-2.35;66.74;93757.81;2068415;69;20172;-74
2022/01/26 07:52:03;;;;;;;21.92;12.75;;;;;;;-1.91;64.68;93761.06;2068624;69;20136;-72
2022/01/26 07:54:32;;;;;;;18.95;12.20;;;;;;;-1.70;64.10;93759.50;2068603;69;20141;-71
2022/01/26 07:56:57;;;;;;;25.75;13.48;;;;;;;-1.87;65.06;93759.53;2068472;69;20152;-70
2022/01/26 07:59:23;;;;;;;23.50;13.73;;;;;;;-1.78;64.58;93777.09;2068474;69;20148;-72
2022/01/26 08:01:48;;;;;;;24.88;14.07;;;;;;;-1.81;64.63;93776.09;2068447;69;20504;-73
2022/01/26 08:04:14;;;;;;;24.98;13.20;;;;;;;-1.70;64.24;93778.81;2068365;69;20620;-73
2022/01/26 08:06:40;;;;;;;24.17;13.43;;;;;;;-1.65;64.20;93780.84;2068434;69;20234;-70
2022/01/26 08:09:06;;;;;;;21.27;11.27;;;;;;;-1.61;63.91;93786.09;2068450;69;20224;-71
2022/01/26 08:11:31;;;;;;;19.15;9.85;;;;;;;-1.40;63.23;93786.53;2068497;69;20232;-73
2022/01/26 08:13:58;;;;;;;19.63;10.82;;;;;;;-1.65;63.92;93793.88;2068413;69;20222;-76
2022/01/26 08:16:24;;;;;;;24.15;12.48;;;;;;;-1.98;66.02;93794.66;2068636;69;20595;-77
2022/01/26 08:18:49;;;;;;;27.15;13.27;;;;;;;-1.74;64.60;93797.69;2068433;69;20187;-70
2022/01/26 08:21:15;;;;;;;21.40;12.27;;;;;;;-1.76;65.28;93804.94;2068259;69;20584;-70
2022/01/26 08:23:43;;;;;;;22.05;11.80;;;;;;;-1.64;64.80;93803.69;2068406;69;20160;-71
2022/01/26 08:26:09;;;;;;;26.35;13.55;;;;;;;-1.56;64.09;93805.44;2068409;69;20180;-71
2022/01/26 08:28:39;;;;;;;23.02;11.90;;;;;;;-1.50;64.11;93818.47;2068336;69;20238;-72
2022/01/26 08:31:05;;;;;;;17.08;10.10;;;;;;;-1.40;63.67;93825.22;2068502;69;20224;-71
2022/01/26 08:33:30;;;;;;;21.45;10.80;;;;;;;-1.42;64.09;93813.91;2068360;69;20232;-71
2022/01/26 08:35:57;;;;;;;20.85;11.40;;;;;;;-1.41;62.94;93818.94;2068516;69;20232;-71
2022/01/26 08:38:23;;;;;;;19.10;10.32;;;;;;;-1.56;63.63;93815.69;2068334;69;20224;-70
2022/01/26 08:40:49;;;;;;;23.52;11.05;;;;;;;-1.41;62.98;93818.19;2068342;69;20484;-70
2022/01/26 08:43:16;;;;;;;23.23;11.95;;;;;;;-1.37;64.08;93822.22;2068368;69;20157;-69
2022/01/26 08:45:41;;;;;;;21.75;11.35;;;;;;;-0.86;63.26;93820.00;2068358;69;20145;-70
2022/01/26 08:48:07;;;;;;;19.73;10.88;;;;;;;-0.53;64.44;93821.09;2068417;69;20615;-70
2022/01/26 08:50:33;;;;;;;24.17;12.13;;;;;;;-0.17;63.98;93827.41;2068299;69;20156;-70
2022/01/26 08:52:59;;;;;;;17.85;9.48;;;;;;;0.15;63.39;93827.69;2068313;69;20778;-71
2022/01/26 08:55:25;;;;;;;19.42;9.90;;;;;;;0.33;62.84;93828.31;2068378;69;20184;-72
2022/01/26 08:57:51;;;;;;;15.23;8.05;;;;;;;0.72;62.99;93839.00;2068312;69;20231;-70
2022/01/26 09:00:17;;;;;;;24.17;10.52;;;;;;;0.56;62.86;93837.16;2068381;69;20574;-74
2022/01/26 09:02:43;;;;;;;50.47;24.63;;;;;;;0.79;63.24;93834.94;2068273;69;20149;-72
2022/01/26 09:05:09;;;;;;;51.75;27.58;;;;;;;1.23;61.51;93836.44;2068043;69;20648;-71
2022/01/26 09:07:35;;;;;;;38.30;19.63;;;;;;;1.39;61.03;93843.81;2068322;69;20223;-70
2022/01/26 09:10:03;;;;;;;67.00;27.02;;;;;;;1.75;61.11;93838.81;2068248;69;20581;-71
2022/01/26 09:12:30;;;;;;;29.05;13.95;;;;;;;2.11;59.21;93838.53;2068256;69;20601;-70
2022/01/26 09:14:59;;;;;;;64.15;26.23;;;;;;;2.34;59.29;93849.28;2068356;69;20184;-71
2022/01/26 09:17:27;;;;;;;50.03;20.23;;;;;;;2.49;59.07;93832.88;2068455;69;20160;-70
2022/01/26 09:19:53;;;;;;;92.47;45.70;;;;;;;2.92;58.07;93838.19;2068109;69;20592;-70
2022/01/26 09:22:19;;;;;;;33.53;18.58;;;;;;;2.57;57.81;93850.44;2068225;69;20141;-69
2022/01/26 09:24:45;;;;;;;25.60;13.95;;;;;;;3.15;56.32;93846.84;2068308;69;20156;-70
2022/01/26 09:27:14;;;;;;;19.45;10.93;;;;;;;3.21;55.70;93847.53;2068220;69;20241;-70
2022/01/26 09:29:41;;;;;;;20.58;10.48;;;;;;;3.09;56.72;93854.56;2068172;69;20202;-71
2022/01/26 09:32:07;;;;;;;18.90;9.82;;;;;;;3.34;56.10;93857.13;2068238;69;20145;-71
2022/01/26 09:34:35;;;;;;;23.25;12.60;;;;;;;3.29;54.98;93850.38;2068138;69;20143;-72
2022/01/26 09:37:03;;;;;;;15.88;9.32;;;;;;;3.66;54.25;93852.16;2068171;69;20145;-73
2022/01/26 09:39:29;;;;;;;16.88;8.82;;;;;;;3.79;53.30;93846.59;2067997;69;20235;-74
2022/01/26 09:41:54;;;;;;;16.42;8.77;;;;;;;4.22;53.83;93844.66;2068120;69;20558;-74
2022/01/26 09:44:21;;;;;;;16.42;9.05;;;;;;;4.48;53.31;93843.78;2068168;69;20144;-71
2022/01/26 09:46:47;;;;;;;12.65;7.40;;;;;;;4.22;52.47;93842.59;2068182;69;20236;-69
2022/01/26 09:49:18;;;;;;;10.02;6.72;;;;;;;4.83;51.81;93840.38;2068139;69;20520;-73
2022/01/26 09:51:50;;;;;;;10.50;6.82;;;;;;;4.67;50.39;93840.78;2068105;69;20519;-71
2022/01/26 09:54:18;;;;;;;17.97;7.87;;;;;;;4.60;50.14;93839.44;2068170;69;20493;-71
2022/01/26 09:56:50;;;;;;;14.98;8.02;;;;;;;4.43;50.31;93834.25;2068096;69;20152;-71
2022/01/26 09:59:18;;;;;;;16.52;8.63;;;;;;;4.35;50.59;93836.22;2068306;69;20141;-73
2022/01/26 10:01:48;;;;;;;12.93;7.53;;;;;;;4.91;50.43;93840.44;2068302;69;20144;-74
2022/01/26 10:04:23;;;;;;;12.75;6.65;;;;;;;5.23;48.34;93834.50;2068037;69;20485;-68
2022/01/26 10:07:18;;;;;;;13.75;7.00;;;;;;;5.67;47.63;93823.38;2068157;69;20500;-69
2022/01/26 10:09:59;;;;;;;12.38;6.20;;;;;;;5.98;47.71;93820.72;2068210;69;20156;-69
2022/01/26 10:18:06;;;;;;;9.73;5.45;;;;;;;6.94;44.97;93810.81;2068102;69;20477;-69
2022/01/26 10:20:41;;;;;;;10.52;5.03;;;;;;;7.39;44.84;93807.19;2068023;69;20144;-71
2022/01/26 10:23:12;;;;;;;6.40;3.70;;;;;;;7.15;43.62;93807.81;2068249;69;20153;-71
2022/01/26 10:25:40;;;;;;;9.20;5.18;;;;;;;7.59;45.04;93799.09;2068322;69;20149;-68
2022/01/26 10:28:09;;;;;;;8.95;5.53;;;;;;;7.34;45.08;93804.59;2068069;69;20618;-69
2022/01/26 10:30:35;;;;;;;10.75;5.40;;;;;;;7.06;44.71;93797.19;2064936;69;20232;-69
2022/01/26 10:33:09;;;;;;;10.60;6.45;;;;;;;7.51;42.91;93792.75;2068169;69;20507;-73
2022/01/26 10:35:35;;;;;;;10.95;6.70;;;;;;;8.34;41.79;93790.94;2068034;69;20145;-70
2022/01/26 10:38:00;;;;;;;12.50;7.10;;;;;;;7.52;42.85;93791.47;2068235;69;20238;-71
2022/01/26 10:40:28;;;;;;;10.05;6.30;;;;;;;7.21;41.93;93782.41;2068067;69;20136;-71
2022/01/26 10:43:11;;;;;;;10.20;5.72;;;;;;;8.47;41.61;93776.63;2068153;69;20619;-71
2022/01/26 10:51:32;;;;;;;6.78;4.47;;;;;;;9.23;38.49;93764.03;2067926;69;20240;-73
2022/01/26 10:54:04;;;;;;;9.02;5.30;;;;;;;10.17;37.00;93763.88;2068613;69;20172;-72
2022/01/26 10:56:29;;;;;;;9.75;5.20;;;;;;;10.42;36.87;93763.00;2068582;69;20705;-71
2022/01/26 10:58:58;;;;;;;6.15;4.20;;;;;;;10.48;35.75;93768.34;2068619;69;20141;-71
2022/01/26 11:01:24;;;;;;;5.90;3.90;;;;;;;10.74;35.22;93747.13;2068569;69;20179;-71
2022/01/26 11:03:49;;;;;;;8.07;4.20;;;;;;;11.30;35.25;93755.59;2068492;69;20200;-71
2022/01/26 11:06:18;;;;;;;9.25;4.70;;;;;;;11.60;33.87;93749.41;2068348;69;20157;-74
2022/01/26 11:08:45;;;;;;;14.20;6.05;;;;;;;11.54;35.62;93742.53;2068501;69;20201;-73
2022/01/26 11:11:24;;;;;;;10.45;5.43;;;;;;;11.73;33.83;93751.03;2068467;69;20157;-70
2022/01/26 11:13:50;;;;;;;6.43;4.00;;;;;;;11.35;34.41;93758.09;2068498;69;20203;-72
2022/01/26 11:16:20;;;;;;;5.68;3.63;;;;;;;14.40;31.48;93749.44;2068486;69;20168;-72
2022/01/26 11:18:51;;;;;;;3.78;2.78;;;;;;;13.95;29.23;93748.66;2068601;69;20615;-71
2022/01/26 11:21:29;;;;;;;4.57;3.35;;;;;;;16.29;28.63;93755.72;2068411;69;20219;-71
2022/01/26 11:24:18;;;;;;;6.13;3.38;;;;;;;18.11;25.16;93754.69;2068629;69;20145;-73
2022/01/26 11:26:45;;;;;;;7.47;4.05;;;;;;;19.26;25.51;93747.31;2068771;69;20149;-73
2022/01/26 11:29:14;;;;;;;6.50;4.00;;;;;;;18.90;25.77;93749.97;2068508;69;20176;-74
2022/01/26 11:31:41;;;;;;;10.13;4.93;;;;;;;17.54;26.11;93758.22;2068437;69;20159;-72
2022/01/26 11:34:07;;;;;;;6.03;3.90;;;;;;;18.61;24.45;93744.28;2068344;69;20605;-73
2022/01/26 11:36:33;;;;;;;5.57;4.10;;;;;;;19.41;24.99;93735.16;2068588;69;20574;-70
2022/01/26 11:47:26;;;;;;;7.25;3.50;;;;;;;22.40;21.97;93719.53;2068434;69;20577;-70
2022/01/26 11:50:04;;;;;;;6.78;3.80;;;;;;;22.65;20.60;93715.34;2068382;69;20145;-68
2022/01/26 11:52:35;;;;;;;9.68;3.90;;;;;;;20.59;22.07;93702.25;2068465;69;20188;-68
2022/01/26 11:55:03;;;;;;;7.25;4.50;;;;;;;21.92;22.11;93702.16;2068411;69;20223;-71
2022/01/26 11:57:43;;;;;;;8.05;4.72;;;;;;;22.13;20.64;93697.13;2068313;69;20140;-68
2022/01/26 12:00:13;;;;;;;20.20;5.28;;;;;;;22.95;21.05;93700.47;2068479;69;20148;-67
2022/01/26 12:05:18;;;;;;;5.63;3.83;;;;;;;18.19;22.86;93684.59;2068200;69;20584;-72
2022/01/26 12:07:54;;;;;;;8.15;3.47;;;;;;;16.48;26.15;93675.78;2068332;69;20164;-72
2022/01/26 12:10:29;;;;;;;4.85;3.15;;;;;;;14.02;28.08;93671.25;2068434;69;20176;-72
2022/01/26 12:13:20;;;;;;;13.52;4.15;;;;;;;14.22;28.18;93666.13;2068323;69;20519;-71
2022/01/26 12:15:55;;;;;;;12.57;4.85;;;;;;;13.58;30.78;93655.72;2067953;69;20143;-73
2022/01/26 12:19:21;;;;;;;5.28;3.30;;;;;;;13.10;29.63;93656.81;2068332;69;20632;-74
2022/01/26 12:38:22;;;;;;;14.27;5.60;;;;;;;8.44;37.26;93614.28;2068526;69;20231;-76
2022/01/26 12:43:38;;;;;;;15.45;6.40;;;;;;;8.38;37.37;93601.25;2068494;69;20520;-74
2022/01/26 12:46:07;;;;;;;18.80;7.97;;;;;;;7.66;39.29;93598.59;2068320;69;20536;-70
2022/01/26 12:48:34;;;;;;;22.08;7.70;;;;;;;7.68;39.45;93593.91;2067756;69;20152;-73
2022/01/26 12:51:03;;;;;;;14.95;7.60;;;;;;;7.54;39.76;93587.09;2068184;69;20172;-71
2022/01/26 12:53:32;;;;;;;18.67;7.45;;;;;;;7.49;39.43;93585.25;2068339;69;20214;-70
2022/01/26 12:56:04;;;;;;;14.80;7.60;;;;;;;7.60;39.44;93590.41;2068545;69;20155;-70
2022/01/26 12:58:36;;;;;;;32.70;14.25;;;;;;;6.80;41.48;93583.53;2068302;69;20160;-70
2022/01/26 13:01:05;;;;;;;25.48;14.05;;;;;;;6.74;41.63;93587.84;2067808;69;20152;-71
2022/01/26 13:03:34;;;;;;;21.98;11.02;;;;;;;6.61;42.52;93572.78;2067797;69;20143;-70
2022/01/26 13:06:11;;;;;;;18.20;8.70;;;;;;;6.84;41.57;93580.34;2067899;69;20172;-70
2022/01/26 13:08:57;;;;;;;25.30;11.55;;;;;;;5.71;43.73;93579.94;2067494;69;20240;-70
2022/01/26 13:11:30;;;;;;;22.15;11.55;;;;;;;6.32;43.03;93579.91;2068129;69;20152;-70
2022/01/26 13:14:20;;;;;;;25.05;13.55;;;;;;;6.22;42.51;93584.59;2064671;69;20129;-71
2022/01/26 13:17:32;;;;;;;22.65;12.25;;;;;;;6.06;42.51;93587.44;2068124;69;20559;-70
2022/01/26 13:20:31;;;;;;;24.15;11.63;;;;;;;5.73;43.54;93594.13;2068094;69;20160;-70
2022/01/26 13:26:15;;;;;;;18.23;11.20;;;;;;;6.02;44.40;93598.22;2068237;69;20613;-74
2022/01/26 13:37:17;;;;;;;32.35;12.80;;;;;;;5.27;45.66;93597.59;2067970;69;20171;-73
2022/01/26 13:43:28;;;;;;;56.22;31.48;;;;;;;4.87;46.55;93599.31;2068256;69;20214;-71
2022/01/26 13:45:44;;;;;;;44.58;23.80;;;;;;;5.12;45.70;93597.53;2067367;69;20141;-70
2022/01/26 13:51:49;;;;;;;34.95;18.65;;;;;;;5.07;45.92;93595.66;2067933;69;20137;-70
2022/01/26 13:53:53;;;;;;;36.03;18.63;;;;;;;4.50;48.34;93599.34;2064936;69;20213;-69
2022/01/26 13:56:56;;;;;;;38.67;18.35;;;;;;;5.07;46.17;93595.66;2068057;69;20136;-70
2022/01/26 14:01:36;;;;;;;38.50;17.23;;;;;;;4.66;47.72;93585.44;2064696;69;20167;-68
2022/01/26 14:04:05;;;;;;;38.88;18.73;;;;;;;4.83;46.69;93583.66;2067673;69;20153;-69
2022/01/26 14:06:31;;;;;;;45.30;22.08;;;;;;;4.71;47.45;93585.28;2064463;69;20184;-68
2022/01/26 14:08:56;;;;;;;35.13;18.50;;;;;;;4.85;46.15;93583.84;2067786;69;20591;-70
2022/01/26 14:11:22;;;;;;;47.13;21.00;;;;;;;4.43;47.67;93580.50;2067664;69;20163;-69
2022/01/26 14:13:49;;;;;;;55.25;21.60;;;;;;;4.29;47.85;93579.13;2067862;69;20144;-68
2022/01/26 14:16:17;;;;;;;41.90;19.20;;;;;;;4.55;47.71;93589.31;2067918;69;20185;-72